Langruth, Canada
Current Conditions -  °F | °C
As of 10:00 PM on Thursday 18 Dec 2014 (Local Time) from CYBR Reporting Station
Light Snow Light Snow  
Wind Chill: -11°   Ceiling: 1800
Heat Index: -7°   Visibility: 12mi
Dew Point: -9°   Wind: 5mph
Humidity: 86%   Direction: 180°S
Pressure: 30.02"   Gusts: NA
Location:  50.38°N, 98.67°W
Report Text: CYBR 190400Z 18004KT 12SM -SN OVC018 M07/M09 A3002 RMK SC8 SLP203
Loading
Personal Weather Stations






























Interactive Weather Map New forecast layout! Learn more

10-Day Weather Forecast

Advertisements
Track Severe Weather on mobile